sensor_id;sensor_type;location;lat;lon;timestamp;pressure;altitude;pressure_sealevel;temperature;humidity
47753;BME280;2038;51.728;6.674;2022-12-20T00:01:27;100796.53;;;10.92;100.00
47753;BME280;2038;51.728;6.674;2022-12-20T00:03:58;100793.81;;;11.02;100.00
47753;BME280;2038;51.728;6.674;2022-12-20T00:06:30;100790.78;;;10.95;100.00
47753;BME280;2038;51.728;6.674;2022-12-20T00:09:00;100782.31;;;10.96;100.00
47753;BME280;2038;51.728;6.674;2022-12-20T00:11:28;100776.72;;;10.88;100.00
47753;BME280;2038;51.728;6.674;2022-12-20T00:13:56;100770.66;;;10.86;100.00
47753;BME280;2038;51.728;6.674;2022-12-20T00:16:27;100770.28;;;10.93;100.00
47753;BME280;2038;51.728;6.674;2022-12-20T00:18:57;100769.31;;;10.91;100.00
47753;BME280;2038;51.728;6.674;2022-12-20T00:21:27;100770.38;;;10.95;100.00
47753;BME280;2038;51.728;6.674;2022-12-20T00:23:56;100774.06;;;11.00;100.00
47753;BME280;2038;51.728;6.674;2022-12-20T00:26:26;100765.75;;;10.89;100.00
47753;BME280;2038;51.728;6.674;2022-12-20T00:28:54;100764.47;;;10.96;100.00
47753;BME280;2038;51.728;6.674;2022-12-20T00:31:22;100759.38;;;10.96;100.00
47753;BME280;2038;51.728;6.674;2022-12-20T00:33:51;100757.03;;;10.99;100.00
47753;BME280;2038;51.728;6.674;2022-12-20T00:36:20;100751.13;;;11.00;100.00
47753;BME280;2038;51.728;6.674;2022-12-20T00:38:50;100752.13;;;11.02;100.00
47753;BME280;2038;51.728;6.674;2022-12-20T00:41:22;100759.66;;;11.00;100.00
47753;BME280;2038;51.728;6.674;2022-12-20T00:43:50;100753.78;;;11.01;100.00
47753;BME280;2038;51.728;6.674;2022-12-20T00:46:17;100745.44;;;11.04;100.00
47753;BME280;2038;51.728;6.674;2022-12-20T00:48:44;100735.53;;;11.08;100.00
47753;BME280;2038;51.728;6.674;2022-12-20T00:51:14;100758.41;;;11.07;100.00
47753;BME280;2038;51.728;6.674;2022-12-20T00:53:42;100753.50;;;11.10;100.00
47753;BME280;2038;51.728;6.674;2022-12-20T00:56:09;100755.94;;;11.08;100.00
47753;BME280;2038;51.728;6.674;2022-12-20T00:58:38;100750.25;;;11.12;100.00
47753;BME280;2038;51.728;6.674;2022-12-20T01:01:15;100740.03;;;11.12;100.00
47753;BME280;2038;51.728;6.674;2022-12-20T01:03:43;100754.56;;;11.13;100.00
47753;BME280;2038;51.728;6.674;2022-12-20T01:06:10;100752.19;;;11.16;100.00
47753;BME280;2038;51.728;6.674;2022-12-20T01:08:37;100737.88;;;11.18;100.00
47753;BME280;2038;51.728;6.674;2022-12-20T01:11:10;100748.09;;;11.18;100.00
47753;BME280;2038;51.728;6.674;2022-12-20T01:13:41;100736.41;;;11.22;100.00
47753;BME280;2038;51.728;6.674;2022-12-20T01:16:31;100736.41;;;11.22;100.00
47753;BME280;2038;51.728;6.674;2022-12-20T01:19:01;100732.84;;;11.20;100.00
47753;BME280;2038;51.728;6.674;2022-12-20T01:21:28;100730.91;;;11.16;100.00
47753;BME280;2038;51.728;6.674;2022-12-20T01:23:55;100731.13;;;11.19;100.00
47753;BME280;2038;51.728;6.674;2022-12-20T01:26:24;100734.06;;;11.12;100.00
47753;BME280;2038;51.728;6.674;2022-12-20T01:28:57;100745.03;;;11.24;100.00
47753;BME280;2038;51.728;6.674;2022-12-20T01:31:26;100742.78;;;11.15;100.00
47753;BME280;2038;51.728;6.674;2022-12-20T01:33:53;100743.66;;;11.16;100.00
47753;BME280;2038;51.728;6.674;2022-12-20T01:36:23;100742.28;;;11.21;100.00
47753;BME280;2038;51.728;6.674;2022-12-20T01:39:00;100748.75;;;11.29;100.00
47753;BME280;2038;51.728;6.674;2022-12-20T01:41:29;100744.81;;;11.34;100.00
47753;BME280;2038;51.728;6.674;2022-12-20T01:46:31;100739.53;;;11.31;100.00
47753;BME280;2038;51.728;6.674;2022-12-20T01:52:12;100733.44;;;11.29;100.00
47753;BME280;2038;51.728;6.674;2022-12-20T01:54:52;100726.28;;;11.23;100.00
47753;BME280;2038;51.728;6.674;2022-12-20T01:57:47;100726.78;;;11.31;100.00
47753;BME280;2038;51.728;6.674;2022-12-20T02:00:21;100725.19;;;11.33;100.00
47753;BME280;2038;51.728;6.674;2022-12-20T02:02:49;100734.09;;;11.40;100.00
47753;BME280;2038;51.728;6.674;2022-12-20T02:05:17;100741.09;;;11.29;100.00
47753;BME280;2038;51.728;6.674;2022-12-20T02:07:48;100741.09;;;11.29;100.00
47753;BME280;2038;51.728;6.674;2022-12-20T02:10:17;100743.66;;;11.29;100.00
47753;BME280;2038;51.728;6.674;2022-12-20T02:12:47;100735.22;;;11.30;100.00
47753;BME280;2038;51.728;6.674;2022-12-20T02:18:01;100747.25;;;11.33;100.00
47753;BME280;2038;51.728;6.674;2022-12-20T02:30:12;100738.72;;;11.32;100.00
47753;BME280;2038;51.728;6.674;2022-12-20T02:32:59;100742.75;;;11.28;100.00
47753;BME280;2038;51.728;6.674;2022-12-20T02:35:31;100733.16;;;11.24;100.00
47753;BME280;2038;51.728;6.674;2022-12-20T02:38:01;100739.56;;;11.18;100.00
47753;BME280;2038;51.728;6.674;2022-12-20T02:40:48;100739.56;;;11.18;100.00
47753;BME280;2038;51.728;6.674;2022-12-20T02:43:19;100735.03;;;11.14;100.00
47753;BME280;2038;51.728;6.674;2022-12-20T02:46:07;100718.19;;;11.03;100.00
47753;BME280;2038;51.728;6.674;2022-12-20T02:48:37;100711.91;;;10.98;100.00
47753;BME280;2038;51.728;6.674;2022-12-20T02:51:05;100703.97;;;10.93;100.00
47753;BME280;2038;51.728;6.674;2022-12-20T02:53:36;100703.69;;;10.89;100.00
47753;BME280;2038;51.728;6.674;2022-12-20T02:56:22;100710.97;;;10.83;100.00
47753;BME280;2038;51.728;6.674;2022-12-20T02:59:20;100708.41;;;10.83;100.00
47753;BME280;2038;51.728;6.674;2022-12-20T03:01:56;100718.00;;;10.73;100.00
47753;BME280;2038;51.728;6.674;2022-12-20T03:04:27;100713.19;;;10.65;100.00
47753;BME280;2038;51.728;6.674;2022-12-20T03:07:02;100704.78;;;10.66;100.00
47753;BME280;2038;51.728;6.674;2022-12-20T03:09:33;100708.00;;;10.63;100.00
47753;BME280;2038;51.728;6.674;2022-12-20T03:12:03;100701.03;;;10.61;100.00
47753;BME280;2038;51.728;6.674;2022-12-20T03:14:31;100721.63;;;10.64;100.00
47753;BME280;2038;51.728;6.674;2022-12-20T03:16:56;100710.75;;;10.53;100.00
47753;BME280;2038;51.728;6.674;2022-12-20T03:19:23;100712.09;;;10.48;100.00
47753;BME280;2038;51.728;6.674;2022-12-20T03:21:49;100708.91;;;10.51;100.00
47753;BME280;2038;51.728;6.674;2022-12-20T03:24:15;100702.81;;;10.49;100.00
47753;BME280;2038;51.728;6.674;2022-12-20T03:26:42;100695.28;;;10.50;100.00
47753;BME280;2038;51.728;6.674;2022-12-20T03:29:09;100692.63;;;10.49;100.00
47753;BME280;2038;51.728;6.674;2022-12-20T03:31:35;100686.25;;;10.42;100.00
47753;BME280;2038;51.728;6.674;2022-12-20T03:34:02;100692.13;;;10.41;100.00
47753;BME280;2038;51.728;6.674;2022-12-20T03:36:28;100685.19;;;10.39;100.00
47753;BME280;2038;51.728;6.674;2022-12-20T03:38:55;100685.44;;;10.43;100.00
47753;BME280;2038;51.728;6.674;2022-12-20T03:41:22;100682.91;;;10.43;100.00
47753;BME280;2038;51.728;6.674;2022-12-20T03:43:49;100683.91;;;10.45;100.00
47753;BME280;2038;51.728;6.674;2022-12-20T03:46:16;100679.09;;;10.50;100.00
47753;BME280;2038;51.728;6.674;2022-12-20T03:48:42;100678.50;;;10.54;100.00
47753;BME280;2038;51.728;6.674;2022-12-20T03:51:08;100674.06;;;10.51;100.00
47753;BME280;2038;51.728;6.674;2022-12-20T03:53:35;100681.25;;;10.57;100.00
47753;BME280;2038;51.728;6.674;2022-12-20T03:56:01;100674.69;;;10.60;100.00
47753;BME280;2038;51.728;6.674;2022-12-20T03:58:27;100669.28;;;10.56;100.00
47753;BME280;2038;51.728;6.674;2022-12-20T04:00:52;100663.59;;;10.60;100.00
47753;BME280;2038;51.728;6.674;2022-12-20T04:03:18;100662.13;;;10.63;100.00
47753;BME280;2038;51.728;6.674;2022-12-20T04:05:44;100661.25;;;10.63;100.00
47753;BME280;2038;51.728;6.674;2022-12-20T04:08:11;100658.19;;;10.68;100.00
47753;BME280;2038;51.728;6.674;2022-12-20T04:10:39;100661.44;;;10.79;100.00
47753;BME280;2038;51.728;6.674;2022-12-20T04:13:32;100657.91;;;10.90;100.00
47753;BME280;2038;51.728;6.674;2022-12-20T04:15:58;100666.91;;;10.98;100.00
47753;BME280;2038;51.728;6.674;2022-12-20T04:18:24;100657.06;;;11.04;100.00
47753;BME280;2038;51.728;6.674;2022-12-20T04:20:53;100654.31;;;11.14;100.00
47753;BME280;2038;51.728;6.674;2022-12-20T04:23:19;100656.03;;;11.15;100.00
47753;BME280;2038;51.728;6.674;2022-12-20T04:25:46;100657.03;;;11.17;100.00
47753;BME280;2038;51.728;6.674;2022-12-20T04:28:12;100654.59;;;11.19;100.00
47753;BME280;2038;51.728;6.674;2022-12-20T04:30:38;100643.41;;;11.17;100.00
47753;BME280;2038;51.728;6.674;2022-12-20T04:33:04;100649.09;;;11.13;100.00
47753;BME280;2038;51.728;6.674;2022-12-20T04:35:30;100660.47;;;11.18;100.00
47753;BME280;2038;51.728;6.674;2022-12-20T04:37:57;100664.50;;;11.14;100.00
47753;BME280;2038;51.728;6.674;2022-12-20T04:40:23;100659.78;;;11.20;100.00
47753;BME280;2038;51.728;6.674;2022-12-20T04:42:50;100667.59;;;11.23;100.00
47753;BME280;2038;51.728;6.674;2022-12-20T04:45:15;100656.03;;;11.15;100.00
47753;BME280;2038;51.728;6.674;2022-12-20T04:47:41;100661.97;;;11.14;100.00
47753;BME280;2038;51.728;6.674;2022-12-20T04:50:08;100660.47;;;11.18;100.00
47753;BME280;2038;51.728;6.674;2022-12-20T04:52:34;100661.84;;;11.13;100.00
47753;BME280;2038;51.728;6.674;2022-12-20T04:55:18;100662.63;;;11.12;100.00
47753;BME280;2038;51.728;6.674;2022-12-20T04:57:44;100660.97;;;11.12;100.00
47753;BME280;2038;51.728;6.674;2022-12-20T05:00:11;100650.00;;;11.13;100.00
47753;BME280;2038;51.728;6.674;2022-12-20T05:02:37;100658.13;;;11.08;100.00
47753;BME280;2038;51.728;6.674;2022-12-20T05:05:03;100662.16;;;11.04;100.00
47753;BME280;2038;51.728;6.674;2022-12-20T05:07:29;100652.84;;;11.05;100.00
47753;BME280;2038;51.728;6.674;2022-12-20T05:09:55;100647.25;;;11.10;100.00
47753;BME280;2038;51.728;6.674;2022-12-20T05:12:21;100640.13;;;11.19;100.00
47753;BME280;2038;51.728;6.674;2022-12-20T05:14:46;100648.69;;;11.20;100.00
47753;BME280;2038;51.728;6.674;2022-12-20T05:17:12;100641.44;;;11.13;100.00
47753;BME280;2038;51.728;6.674;2022-12-20T05:19:38;100639.59;;;11.10;100.00
47753;BME280;2038;51.728;6.674;2022-12-20T05:22:04;100648.81;;;11.08;100.00
47753;BME280;2038;51.728;6.674;2022-12-20T05:24:48;100639.78;;;11.13;100.00
47753;BME280;2038;51.728;6.674;2022-12-20T05:27:33;100626.94;;;11.12;100.00
47753;BME280;2038;51.728;6.674;2022-12-20T05:29:59;100611.84;;;11.15;100.00
47753;BME280;2038;51.728;6.674;2022-12-20T05:32:25;100613.78;;;11.19;100.00
47753;BME280;2038;51.728;6.674;2022-12-20T05:34:50;100620.56;;;11.18;100.00
47753;BME280;2038;51.728;6.674;2022-12-20T05:37:16;100616.06;;;11.14;100.00
47753;BME280;2038;51.728;6.674;2022-12-20T05:39:42;100613.78;;;11.19;100.00
47753;BME280;2038;51.728;6.674;2022-12-20T05:42:08;100606.53;;;11.12;100.00
47753;BME280;2038;51.728;6.674;2022-12-20T05:44:34;100609.63;;;11.21;100.00
47753;BME280;2038;51.728;6.674;2022-12-20T05:46:59;100605.59;;;11.24;100.00
47753;BME280;2038;51.728;6.674;2022-12-20T05:49:25;100600.03;;;11.17;100.00
47753;BME280;2038;51.728;6.674;2022-12-20T05:51:51;100601.41;;;11.12;100.00
47753;BME280;2038;51.728;6.674;2022-12-20T05:54:17;100594.75;;;11.14;100.00
47753;BME280;2038;51.728;6.674;2022-12-20T05:56:43;100599.69;;;11.11;100.00
47753;BME280;2038;51.728;6.674;2022-12-20T05:59:09;100601.94;;;11.06;100.00
47753;BME280;2038;51.728;6.674;2022-12-20T06:01:34;100593.28;;;11.17;100.00
47753;BME280;2038;51.728;6.674;2022-12-20T06:04:01;100603.91;;;11.10;100.00
47753;BME280;2038;51.728;6.674;2022-12-20T06:06:27;100607.34;;;11.11;100.00
47753;BME280;2038;51.728;6.674;2022-12-20T06:08:53;100598.88;;;11.12;100.00
47753;BME280;2038;51.728;6.674;2022-12-20T06:11:20;100597.22;;;11.12;100.00
47753;BME280;2038;51.728;6.674;2022-12-20T06:13:46;100588.00;;;11.14;100.00
47753;BME280;2038;51.728;6.674;2022-12-20T06:16:12;100593.00;;;11.13;100.00
47753;BME280;2038;51.728;6.674;2022-12-20T06:18:38;100600.53;;;11.11;100.00
47753;BME280;2038;51.728;6.674;2022-12-20T06:21:04;100594.38;;;11.08;100.00
47753;BME280;2038;51.728;6.674;2022-12-20T06:23:29;100594.38;;;11.08;100.00
47753;BME280;2038;51.728;6.674;2022-12-20T06:25:55;100603.91;;;11.10;100.00
47753;BME280;2038;51.728;6.674;2022-12-20T06:28:22;100593.97;;;11.15;100.00
47753;BME280;2038;51.728;6.674;2022-12-20T06:30:53;100589.47;;;11.11;100.00
47753;BME280;2038;51.728;6.674;2022-12-20T06:33:19;100594.75;;;11.14;100.00
47753;BME280;2038;51.728;6.674;2022-12-20T06:35:45;100590.25;;;11.10;100.00
47753;BME280;2038;51.728;6.674;2022-12-20T06:38:11;100590.53;;;11.14;100.00
47753;BME280;2038;51.728;6.674;2022-12-20T06:40:37;100581.72;;;11.09;100.00
47753;BME280;2038;51.728;6.674;2022-12-20T06:43:03;100575.03;;;11.11;100.00
47753;BME280;2038;51.728;6.674;2022-12-20T06:45:29;100575.75;;;11.09;100.00
47753;BME280;2038;51.728;6.674;2022-12-20T06:47:56;100574.25;;;11.12;100.00
47753;BME280;2038;51.728;6.674;2022-12-20T06:50:23;100568.25;;;11.12;100.00
47753;BME280;2038;51.728;6.674;2022-12-20T06:52:48;100570.03;;;11.13;100.00
47753;BME280;2038;51.728;6.674;2022-12-20T06:55:16;100556.41;;;11.12;100.00
47753;BME280;2038;51.728;6.674;2022-12-20T06:57:42;100542.88;;;11.13;100.00
47753;BME280;2038;51.728;6.674;2022-12-20T07:00:09;100538.22;;;11.36;100.00
47753;BME280;2038;51.728;6.674;2022-12-20T07:02:37;100549.13;;;11.33;100.00
47753;BME280;2038;51.728;6.674;2022-12-20T07:05:04;100550.88;;;11.19;100.00
47753;BME280;2038;51.728;6.674;2022-12-20T07:07:30;100559.00;;;11.27;100.00
47753;BME280;2038;51.728;6.674;2022-12-20T07:09:56;100537.78;;;11.28;100.00
47753;BME280;2038;51.728;6.674;2022-12-20T07:12:22;100545.25;;;11.40;100.00
47753;BME280;2038;51.728;6.674;2022-12-20T07:14:48;100540.63;;;11.47;100.00
47753;BME280;2038;51.728;6.674;2022-12-20T07:17:14;100546.88;;;11.38;100.00
47753;BME280;2038;51.728;6.674;2022-12-20T07:19:41;100542.72;;;11.40;100.00
47753;BME280;2038;51.728;6.674;2022-12-20T07:22:07;100540.25;;;11.41;100.00
47753;BME280;2038;51.728;6.674;2022-12-20T07:24:33;100535.34;;;11.44;100.00
47753;BME280;2038;51.728;6.674;2022-12-20T07:27:00;100531.66;;;11.39;100.00
47753;BME280;2038;51.728;6.674;2022-12-20T07:29:26;100529.16;;;11.41;100.00
47753;BME280;2038;51.728;6.674;2022-12-20T07:31:52;100541.66;;;11.36;100.00
47753;BME280;2038;51.728;6.674;2022-12-20T07:34:18;100540.00;;;11.37;100.00
47753;BME280;2038;51.728;6.674;2022-12-20T07:36:44;100543.69;;;11.42;100.00
47753;BME280;2038;51.728;6.674;2022-12-20T07:39:10;100551.25;;;11.40;100.00
47753;BME280;2038;51.728;6.674;2022-12-20T07:41:38;100556.56;;;11.43;100.00
47753;BME280;2038;51.728;6.674;2022-12-20T07:44:04;100554.53;;;11.38;100.00
47753;BME280;2038;51.728;6.674;2022-12-20T07:46:30;100547.91;;;11.41;100.00
47753;BME280;2038;51.728;6.674;2022-12-20T07:48:56;100557.78;;;11.50;100.00
47753;BME280;2038;51.728;6.674;2022-12-20T07:51:35;100558.56;;;11.49;100.00
47753;BME280;2038;51.728;6.674;2022-12-20T07:54:18;100546.78;;;11.51;100.00
47753;BME280;2038;51.728;6.674;2022-12-20T07:56:52;100536.59;;;11.51;100.00
47753;BME280;2038;51.728;6.674;2022-12-20T07:59:26;100541.59;;;11.49;100.00
47753;BME280;2038;51.728;6.674;2022-12-20T08:01:56;100547.41;;;11.47;100.00
47753;BME280;2038;51.728;6.674;2022-12-20T08:04:25;100549.06;;;11.46;100.00
47753;BME280;2038;51.728;6.674;2022-12-20T08:06:54;100550.22;;;11.51;100.00
47753;BME280;2038;51.728;6.674;2022-12-20T08:09:25;100551.91;;;11.51;100.00
47753;BME280;2038;51.728;6.674;2022-12-20T08:11:57;100553.56;;;11.50;100.00
47753;BME280;2038;51.728;6.674;2022-12-20T08:14:24;100550.31;;;11.53;100.00
47753;BME280;2038;51.728;6.674;2022-12-20T08:16:50;100536.31;;;11.61;100.00
47753;BME280;2038;51.728;6.674;2022-12-20T08:19:16;100539.22;;;11.67;100.00
47753;BME280;2038;51.728;6.674;2022-12-20T08:21:43;100535.16;;;11.56;100.00
47753;BME280;2038;51.728;6.674;2022-12-20T08:24:09;100530.53;;;11.63;100.00
47753;BME280;2038;51.728;6.674;2022-12-20T08:26:39;100521.25;;;11.65;100.00
47753;BME280;2038;51.728;6.674;2022-12-20T08:29:07;100533.41;;;11.69;100.00
47753;BME280;2038;51.728;6.674;2022-12-20T08:31:38;100522.50;;;11.72;100.00
47753;BME280;2038;51.728;6.674;2022-12-20T08:34:05;100524.19;;;11.71;100.00
47753;BME280;2038;51.728;6.674;2022-12-20T08:36:31;100524.38;;;11.75;100.00
47753;BME280;2038;51.728;6.674;2022-12-20T08:39:00;100527.19;;;11.79;100.00
47753;BME280;2038;51.728;6.674;2022-12-20T08:41:28;100512.66;;;11.78;100.00
47753;BME280;2038;51.728;6.674;2022-12-20T08:43:55;100516.28;;;11.82;100.00
47753;BME280;2038;51.728;6.674;2022-12-20T08:46:21;100525.69;;;11.83;100.00
47753;BME280;2038;51.728;6.674;2022-12-20T08:48:48;100513.88;;;11.85;100.00
47753;BME280;2038;51.728;6.674;2022-12-20T08:51:14;100512.84;;;11.81;100.00
47753;BME280;2038;51.728;6.674;2022-12-20T08:53:40;100516.09;;;11.79;100.00
47753;BME280;2038;51.728;6.674;2022-12-20T08:56:09;100521.63;;;11.86;100.00
47753;BME280;2038;51.728;6.674;2022-12-20T08:58:39;100522.69;;;11.90;100.00
47753;BME280;2038;51.728;6.674;2022-12-20T09:01:07;100530.25;;;11.88;100.00
47753;BME280;2038;51.728;6.674;2022-12-20T09:03:36;100523.00;;;11.96;100.00
47753;BME280;2038;51.728;6.674;2022-12-20T09:06:09;100515.97;;;11.92;100.00
47753;BME280;2038;51.728;6.674;2022-12-20T09:08:38;100525.66;;;11.97;100.00
47753;BME280;2038;51.728;6.674;2022-12-20T09:11:10;100533.16;;;11.94;100.00
47753;BME280;2038;51.728;6.674;2022-12-20T09:13:40;100528.06;;;11.94;100.00
47753;BME280;2038;51.728;6.674;2022-12-20T09:16:08;100534.72;;;11.92;100.00
47753;BME280;2038;51.728;6.674;2022-12-20T09:18:36;100543.53;;;11.97;100.00
47753;BME280;2038;51.728;6.674;2022-12-20T09:21:03;100535.88;;;11.97;100.00
47753;BME280;2038;51.728;6.674;2022-12-20T09:23:32;100544.44;;;11.98;100.00
47753;BME280;2038;51.728;6.674;2022-12-20T09:26:04;100539.03;;;12.08;100.00
47753;BME280;2038;51.728;6.674;2022-12-20T09:28:35;100546.53;;;12.05;100.00
47753;BME280;2038;51.728;6.674;2022-12-20T09:31:04;100538.78;;;12.03;100.00
47753;BME280;2038;51.728;6.674;2022-12-20T09:33:32;100540.72;;;12.07;100.00
47753;BME280;2038;51.728;6.674;2022-12-20T09:36:00;100538.97;;;12.06;100.00
47753;BME280;2038;51.728;6.674;2022-12-20T09:38:27;100543.03;;;12.03;100.00
47753;BME280;2038;51.728;6.674;2022-12-20T09:40:59;100533.84;;;12.06;100.00
47753;BME280;2038;51.728;6.674;2022-12-20T09:43:28;100535.00;;;12.11;100.00
47753;BME280;2038;51.728;6.674;2022-12-20T09:45:58;100536.63;;;12.26;100.00
47753;BME280;2038;51.728;6.674;2022-12-20T09:48:31;100542.25;;;12.20;100.00
47753;BME280;2038;51.728;6.674;2022-12-20T09:51:21;100533.50;;;12.15;100.00
47753;BME280;2038;51.728;6.674;2022-12-20T09:54:12;100531.72;;;12.14;100.00
47753;BME280;2038;51.728;6.674;2022-12-20T09:57:02;100526.59;;;12.14;100.00
47753;BME280;2038;51.728;6.674;2022-12-20T09:59:49;100532.50;;;12.13;100.00
47753;BME280;2038;51.728;6.674;2022-12-20T10:02:22;100522.59;;;12.03;100.00
47753;BME280;2038;51.728;6.674;2022-12-20T10:04:54;100528.38;;;12.00;100.00
47753;BME280;2038;51.728;6.674;2022-12-20T10:07:38;100527.41;;;12.13;100.00
47753;BME280;2038;51.728;6.674;2022-12-20T10:13:22;100531.72;;;12.14;100.00
47753;BME280;2038;51.728;6.674;2022-12-20T10:19:49;100525.72;;;12.13;100.00
47753;BME280;2038;51.728;6.674;2022-12-20T10:22:52;100520.72;;;12.15;100.00
47753;BME280;2038;51.728;6.674;2022-12-20T10:25:30;100517.34;;;12.16;100.00
47753;BME280;2038;51.728;6.674;2022-12-20T10:28:01;100508.41;;;12.24;100.00
47753;BME280;2038;51.728;6.674;2022-12-20T10:30:32;100500.34;;;12.16;100.00
47753;BME280;2038;51.728;6.674;2022-12-20T10:32:58;100490.75;;;12.12;100.00
47753;BME280;2038;51.728;6.674;2022-12-20T10:35:37;100493.81;;;12.22;100.00
47753;BME280;2038;51.728;6.674;2022-12-20T10:38:10;100487.75;;;12.19;100.00
47753;BME280;2038;51.728;6.674;2022-12-20T10:40:41;100480.09;;;12.19;100.00
47753;BME280;2038;51.728;6.674;2022-12-20T10:43:18;100483.22;;;12.30;100.00
47753;BME280;2038;51.728;6.674;2022-12-20T10:46:04;100479.38;;;12.22;100.00
47753;BME280;2038;51.728;6.674;2022-12-20T10:48:34;100475.94;;;12.22;100.00
47753;BME280;2038;51.728;6.674;2022-12-20T10:53:58;100470.03;;;12.23;100.00
47753;BME280;2038;51.728;6.674;2022-12-20T10:56:34;100470.69;;;12.35;100.00
47753;BME280;2038;51.728;6.674;2022-12-20T10:59:30;100467.88;;;12.30;100.00
47753;BME280;2038;51.728;6.674;2022-12-20T11:02:01;100468.19;;;12.36;100.00
47753;BME280;2038;51.728;6.674;2022-12-20T11:04:58;100468.03;;;12.33;100.00
47753;BME280;2038;51.728;6.674;2022-12-20T11:07:29;100457.53;;;12.43;100.00
47753;BME280;2038;51.728;6.674;2022-12-20T11:10:00;100458.59;;;12.32;100.00
47753;BME280;2038;51.728;6.674;2022-12-20T11:12:28;100459.44;;;12.31;100.00
47753;BME280;2038;51.728;6.674;2022-12-20T11:15:15;100457.66;;;12.30;100.00
47753;BME280;2038;51.728;6.674;2022-12-20T11:17:49;100446.09;;;12.37;100.00
47753;BME280;2038;51.728;6.674;2022-12-20T11:20:32;100445.44;;;12.41;100.00
47753;BME280;2038;51.728;6.674;2022-12-20T11:35:17;100457.59;;;12.45;100.00
47753;BME280;2038;51.728;6.674;2022-12-20T11:40:47;100459.34;;;12.46;100.00
47753;BME280;2038;51.728;6.674;2022-12-20T11:46:19;100450.56;;;12.41;100.00
47753;BME280;2038;51.728;6.674;2022-12-20T11:49:36;100441.84;;;12.21;100.00
47753;BME280;2038;51.728;6.674;2022-12-20T11:54:57;100425.69;;;12.06;100.00
47753;BME280;2038;51.728;6.674;2022-12-20T12:01:00;100421.22;;;12.02;100.00
47753;BME280;2038;51.728;6.674;2022-12-20T12:03:40;100423.25;;;11.93;100.00
47753;BME280;2038;51.728;6.674;2022-12-20T12:06:28;100408.09;;;11.96;100.00
47753;BME280;2038;51.728;6.674;2022-12-20T12:09:40;100415.44;;;11.90;100.00
47753;BME280;2038;51.728;6.674;2022-12-20T12:12:26;100413.41;;;11.84;100.00
47753;BME280;2038;51.728;6.674;2022-12-20T12:17:58;100405.47;;;11.94;100.00
47753;BME280;2038;51.728;6.674;2022-12-20T12:26:10;100400.28;;;11.93;100.00
47753;BME280;2038;51.728;6.674;2022-12-20T12:28:41;100401.50;;;11.99;100.00
47753;BME280;2038;51.728;6.674;2022-12-20T12:31:13;100405.31;;;11.91;100.00
47753;BME280;2038;51.728;6.674;2022-12-20T12:33:48;100396.88;;;12.08;100.00
47753;BME280;2038;51.728;6.674;2022-12-20T12:39:21;100405.25;;;12.06;100.00
47753;BME280;2038;51.728;6.674;2022-12-20T12:50:55;100412.75;;;12.03;100.00
47753;BME280;2038;51.728;6.674;2022-12-20T12:53:35;100410.66;;;11.96;100.00
47753;BME280;2038;51.728;6.674;2022-12-20T13:11:55;100393.25;;;11.89;100.00
47753;BME280;2038;51.728;6.674;2022-12-20T13:21:56;100393.50;;;11.93;100.00
47753;BME280;2038;51.728;6.674;2022-12-20T13:27:35;100391.59;;;12.05;100.00
47753;BME280;2038;51.728;6.674;2022-12-20T13:35:29;100380.19;;;11.99;100.00
47753;BME280;2038;51.728;6.674;2022-12-20T13:49:41;100385.94;;;12.11;100.00
47753;BME280;2038;51.728;6.674;2022-12-20T13:52:27;100371.56;;;12.13;100.00
47753;BME280;2038;51.728;6.674;2022-12-20T13:55:15;100385.06;;;12.10;100.00
47753;BME280;2038;51.728;6.674;2022-12-20T13:57:48;100381.78;;;12.13;100.00
47753;BME280;2038;51.728;6.674;2022-12-20T14:00:18;100384.19;;;12.10;100.00
47753;BME280;2038;51.728;6.674;2022-12-20T14:02:50;100380.34;;;12.18;100.00
47753;BME280;2038;51.728;6.674;2022-12-20T14:05:26;100389.44;;;12.13;100.00
47753;BME280;2038;51.728;6.674;2022-12-20T14:08:00;100392.63;;;12.09;100.00
47753;BME280;2038;51.728;6.674;2022-12-20T14:10:32;100398.09;;;12.15;100.00
47753;BME280;2038;51.728;6.674;2022-12-20T14:13:00;100384.97;;;12.09;100.00
47753;BME280;2038;51.728;6.674;2022-12-20T14:15:28;100390.97;;;12.09;100.00
47753;BME280;2038;51.728;6.674;2022-12-20T14:18:04;100377.94;;;12.05;100.00
47753;BME280;2038;51.728;6.674;2022-12-20T14:20:40;100391.84;;;12.10;100.00
47753;BME280;2038;51.728;6.674;2022-12-20T14:23:18;100384.66;;;12.03;100.00
47753;BME280;2038;51.728;6.674;2022-12-20T14:25:54;100387.69;;;12.12;100.00
47753;BME280;2038;51.728;6.674;2022-12-20T14:28:28;100387.00;;;12.14;100.00
47753;BME280;2038;51.728;6.674;2022-12-20T14:31:01;100396.81;;;12.07;100.00
47753;BME280;2038;51.728;6.674;2022-12-20T14:33:39;100390.03;;;12.07;100.00
47753;BME280;2038;51.728;6.674;2022-12-20T14:38:50;100376.19;;;12.04;100.00
47753;BME280;2038;51.728;6.674;2022-12-20T14:44:22;100381.28;;;12.04;100.00
47753;BME280;2038;51.728;6.674;2022-12-20T14:46:52;100374.50;;;12.04;100.00
47753;BME280;2038;51.728;6.674;2022-12-20T14:49:36;100378.31;;;11.96;100.00
47753;BME280;2038;51.728;6.674;2022-12-20T14:52:36;100384.06;;;11.92;100.00
47753;BME280;2038;51.728;6.674;2022-12-20T14:55:43;100377.75;;;11.86;100.00
47753;BME280;2038;51.728;6.674;2022-12-20T14:58:33;100384.47;;;12.00;100.00
47753;BME280;2038;51.728;6.674;2022-12-20T15:01:17;100389.69;;;12.17;100.00
47753;BME280;2038;51.728;6.674;2022-12-20T15:03:57;100383.53;;;11.98;100.00
47753;BME280;2038;51.728;6.674;2022-12-20T15:06:43;100380.09;;;11.97;100.00
47753;BME280;2038;51.728;6.674;2022-12-20T15:09:10;100383.28;;;11.93;100.00
47753;BME280;2038;51.728;6.674;2022-12-20T15:11:37;100381.19;;;11.86;100.00
47753;BME280;2038;51.728;6.674;2022-12-20T15:16:58;100384.69;;;11.88;100.00